KPBF/PBF METAR and TAF weather

Enter ICAO airport designator
Station Type Date Time Source
KPBF METAR 2024/06/15 21:53 UTC NOAA

KPBF 152153Z AUTO 19006KT 10SM FEW055 34/20 A2991 RMK AO2 SLP125 T03440200 $


Station Type Date Time Source
KPBF Decoded METAR 2024/06/15 21:53 UTC NOAA

PINE BLUFF GRIDER FIELD, AR, United States (KPBF) 34-11N 091-56W 62M
Jun 15, 2024 - 05:53 PM EDT / 2024.06.15 2153 UTC
Wind: from the S (190 degrees) at 7 MPH (6 KT):0
Visibility: 10 mile(s):0
Sky conditions: mostly clear
Temperature: 93.9 F (34.4 C)
Heat index: 98.1 F (36.7 C):1
Dew Point: 68.0 F (20.0 C)
Relative Humidity: 42%
Pressure (altimeter): 29.91 in. Hg (1012 hPa)
ob: KPBF 152153Z AUTO 19006KT 10SM FEW055 34/20 A2991 RMK AO2 SLP125 T03440200
cycle: 22

Station Type Date Time Source
KPBF TAF 2024/06/15 18:27 UTC NOAA